This is the latest recevied weather packets stored in our database for station/object W5MAI. If no packets are shown the sender has not sent any weather packets the latest 10 day(s).
| Time | Temp. | Humidity | Pressure | Rain* | Wind** | Luminosity | Snow |
|---|---|---|---|---|---|---|---|
| 1788147255 | 30° C | 63% | 1016.9 hPa | 0 mm | - | 0 W/m² | - |
| 1788146011 | 30° C | 62% | 1016.8 hPa | 0 mm | - | 0 W/m² | - |
| 1788145433 | 30° C | 61% | 1016.6 hPa | 0 mm | - | 0 W/m² | - |
| 1788144862 | 30.56° C | 62% | 1016.5 hPa | 0 mm | - | 0 W/m² | - |
| 1788144292 | 30.56° C | 62% | 1016.2 hPa | 0 mm | - | 0 W/m² | - |
| 1788143639 | 30.56° C | 62% | 1016 hPa | 0 mm | - | 0 W/m² | - |
| 1788143014 | 30.56° C | 61% | 1015.8 hPa | 0 mm | - | 0 W/m² | - |
| 1788142433 | 30.56° C | 60% | 1015.6 hPa | 0 mm | - | 0 W/m² | - |
| 1788141854 | 31.11° C | 60% | 1015.4 hPa | 0 mm | - | 0 W/m² | - |
| 1788141258 | 31.11° C | 59% | 1015.3 hPa | 0 mm | - | 0 W/m² | - |
| 1788139418 | 31.67° C | 55% | 1015.2 hPa | 0 mm | - | 0 W/m² | - |
| 1788138833 | 32.22° C | 53% | 1015 hPa | 0 mm | - | 0 W/m² | - |
| 1788138259 | 32.78° C | 53% | 1014.9 hPa | 0 mm | - | 0 W/m² | - |
| 1788137629 | 32.78° C | 50% | 1014.7 hPa | 0 mm | - | 9 W/m² | - |
| 1788137061 | 33.33° C | 49% | 1014.6 hPa | 0 mm | - | 16 W/m² | - |
| 1788135821 | 33.89° C | 47% | 1014.5 hPa | 0 mm | - | 56 W/m² | - |
| 1788135256 | 34.44° C | 47% | 1014.7 hPa | 0 mm | - | 86 W/m² | - |
| 1788134632 | 34.44° C | 46% | 1014.7 hPa | 0 mm | - | 114 W/m² | - |
| 1788134052 | 34.44° C | 46% | 1014.6 hPa | 0 mm | - | 167 W/m² | - |
| 1788133414 | 35° C | 44% | 1014.7 hPa | 0 mm | - | 218 W/m² | - |
| 1788132849 | 35.56° C | 43% | 1014.6 hPa | 0 mm | - | 276 W/m² | - |
| 1788132204 | 35.56° C | 44% | 1014.6 hPa | 0 mm | - | 315 W/m² | - |
| 1788131635 | 35° C | 45% | 1014.6 hPa | 0 mm | - | 323 W/m² | - |
| 1788131059 | 35° C | 44% | 1014.7 hPa | 0 mm | - | 346 W/m² | - |
| 1788130422 | 35.56° C | 44% | 1014.8 hPa | 0 mm | - | 392 W/m² | - |
* Rain latest hour (hover to see other rain measurements)
** Current wind speed in m/s (hover to see current wind gust speed)